sensor_id;sensor_type;location;lat;lon;timestamp;temperature;humidity
10702;DHT22;5402;50.004;8.246;2022-07-23T00:00:07;22.90;97.90
10702;DHT22;5402;50.004;8.246;2022-07-23T00:02:35;22.80;97.80
10702;DHT22;5402;50.004;8.246;2022-07-23T00:05:02;22.80;97.80
10702;DHT22;5402;50.004;8.246;2022-07-23T00:07:29;22.80;97.90
10702;DHT22;5402;50.004;8.246;2022-07-23T00:09:57;22.90;97.90
10702;DHT22;5402;50.004;8.246;2022-07-23T00:12:24;22.90;98.00
10702;DHT22;5402;50.004;8.246;2022-07-23T00:14:51;22.80;98.00
10702;DHT22;5402;50.004;8.246;2022-07-23T00:17:17;22.90;98.20
10702;DHT22;5402;50.004;8.246;2022-07-23T00:19:44;22.80;98.20
10702;DHT22;5402;50.004;8.246;2022-07-23T00:22:11;22.80;98.30
10702;DHT22;5402;50.004;8.246;2022-07-23T00:24:38;22.80;98.50
10702;DHT22;5402;50.004;8.246;2022-07-23T00:27:06;22.70;98.70
10702;DHT22;5402;50.004;8.246;2022-07-23T00:29:32;22.70;98.60
10702;DHT22;5402;50.004;8.246;2022-07-23T00:31:59;22.70;98.80
10702;DHT22;5402;50.004;8.246;2022-07-23T00:34:26;22.60;98.80
10702;DHT22;5402;50.004;8.246;2022-07-23T00:36:53;22.60;98.80
10702;DHT22;5402;50.004;8.246;2022-07-23T00:39:20;22.60;99.00
10702;DHT22;5402;50.004;8.246;2022-07-23T00:41:47;22.60;99.30
10702;DHT22;5402;50.004;8.246;2022-07-23T00:44:17;22.60;99.10
10702;DHT22;5402;50.004;8.246;2022-07-23T00:46:49;22.50;99.20
10702;DHT22;5402;50.004;8.246;2022-07-23T00:49:18;22.60;99.30
10702;DHT22;5402;50.004;8.246;2022-07-23T00:51:45;22.60;99.50
10702;DHT22;5402;50.004;8.246;2022-07-23T00:54:12;22.50;99.60
10702;DHT22;5402;50.004;8.246;2022-07-23T00:56:39;22.50;99.70
10702;DHT22;5402;50.004;8.246;2022-07-23T00:59:07;22.50;99.90
10702;DHT22;5402;50.004;8.246;2022-07-23T01:01:35;22.40;99.90
10702;DHT22;5402;50.004;8.246;2022-07-23T01:04:02;22.40;99.90
10702;DHT22;5402;50.004;8.246;2022-07-23T01:06:29;22.30;99.90
10702;DHT22;5402;50.004;8.246;2022-07-23T01:08:57;22.30;99.90
10702;DHT22;5402;50.004;8.246;2022-07-23T01:11:24;22.20;99.90
10702;DHT22;5402;50.004;8.246;2022-07-23T01:13:51;22.20;99.90
10702;DHT22;5402;50.004;8.246;2022-07-23T01:16:19;22.10;99.90
10702;DHT22;5402;50.004;8.246;2022-07-23T01:18:47;21.90;99.90
10702;DHT22;5402;50.004;8.246;2022-07-23T01:21:18;21.90;99.90
10702;DHT22;5402;50.004;8.246;2022-07-23T01:23:46;21.80;99.90
10702;DHT22;5402;50.004;8.246;2022-07-23T01:26:13;21.70;99.90
10702;DHT22;5402;50.004;8.246;2022-07-23T01:28:42;21.70;99.90
10702;DHT22;5402;50.004;8.246;2022-07-23T01:31:09;21.70;99.90
10702;DHT22;5402;50.004;8.246;2022-07-23T01:33:36;21.60;99.90
10702;DHT22;5402;50.004;8.246;2022-07-23T01:36:03;21.40;99.90
10702;DHT22;5402;50.004;8.246;2022-07-23T01:38:29;21.30;99.90
10702;DHT22;5402;50.004;8.246;2022-07-23T01:40:57;21.20;99.90
10702;DHT22;5402;50.004;8.246;2022-07-23T01:43:24;21.20;99.90
10702;DHT22;5402;50.004;8.246;2022-07-23T01:45:51;21.10;99.90
10702;DHT22;5402;50.004;8.246;2022-07-23T01:48:18;21.00;99.90
10702;DHT22;5402;50.004;8.246;2022-07-23T01:50:46;21.10;99.90
10702;DHT22;5402;50.004;8.246;2022-07-23T01:53:12;21.00;99.90
10702;DHT22;5402;50.004;8.246;2022-07-23T01:55:39;21.00;99.90
10702;DHT22;5402;50.004;8.246;2022-07-23T01:58:07;21.00;99.90
10702;DHT22;5402;50.004;8.246;2022-07-23T02:00:34;21.00;99.90
10702;DHT22;5402;50.004;8.246;2022-07-23T02:03:01;20.90;99.90
10702;DHT22;5402;50.004;8.246;2022-07-23T02:05:28;20.70;99.90
10702;DHT22;5402;50.004;8.246;2022-07-23T02:07:55;20.70;99.90
10702;DHT22;5402;50.004;8.246;2022-07-23T02:10:22;20.70;99.90
10702;DHT22;5402;50.004;8.246;2022-07-23T02:12:49;20.70;99.90
10702;DHT22;5402;50.004;8.246;2022-07-23T02:15:17;20.60;99.90
10702;DHT22;5402;50.004;8.246;2022-07-23T02:17:44;20.60;99.90
10702;DHT22;5402;50.004;8.246;2022-07-23T02:20:11;20.60;99.90
10702;DHT22;5402;50.004;8.246;2022-07-23T02:22:38;20.60;99.90
10702;DHT22;5402;50.004;8.246;2022-07-23T02:25:06;20.50;99.90
10702;DHT22;5402;50.004;8.246;2022-07-23T02:27:34;20.40;99.90
10702;DHT22;5402;50.004;8.246;2022-07-23T02:30:03;20.50;99.90
10702;DHT22;5402;50.004;8.246;2022-07-23T02:32:31;20.50;99.90
10702;DHT22;5402;50.004;8.246;2022-07-23T02:34:58;20.50;99.90
10702;DHT22;5402;50.004;8.246;2022-07-23T02:37:25;20.40;99.90
10702;DHT22;5402;50.004;8.246;2022-07-23T02:39:52;20.40;99.90
10702;DHT22;5402;50.004;8.246;2022-07-23T02:42:19;20.50;99.90
10702;DHT22;5402;50.004;8.246;2022-07-23T02:44:45;20.50;99.90
10702;DHT22;5402;50.004;8.246;2022-07-23T02:47:12;20.40;99.90
10702;DHT22;5402;50.004;8.246;2022-07-23T02:49:42;20.40;99.90
10702;DHT22;5402;50.004;8.246;2022-07-23T02:52:09;20.50;99.90
10702;DHT22;5402;50.004;8.246;2022-07-23T02:54:36;20.50;99.90
10702;DHT22;5402;50.004;8.246;2022-07-23T02:57:03;20.40;99.90
10702;DHT22;5402;50.004;8.246;2022-07-23T02:59:30;20.50;99.90
10702;DHT22;5402;50.004;8.246;2022-07-23T03:01:57;20.60;99.90
10702;DHT22;5402;50.004;8.246;2022-07-23T03:04:24;20.60;99.90
10702;DHT22;5402;50.004;8.246;2022-07-23T03:06:52;20.60;99.90
10702;DHT22;5402;50.004;8.246;2022-07-23T03:09:18;20.60;99.90
10702;DHT22;5402;50.004;8.246;2022-07-23T03:11:45;20.50;99.90
10702;DHT22;5402;50.004;8.246;2022-07-23T03:14:12;20.50;99.90
10702;DHT22;5402;50.004;8.246;2022-07-23T03:16:40;20.50;99.90
10702;DHT22;5402;50.004;8.246;2022-07-23T03:19:07;20.50;99.90
10702;DHT22;5402;50.004;8.246;2022-07-23T03:21:33;20.40;99.90
10702;DHT22;5402;50.004;8.246;2022-07-23T03:24:06;20.40;99.90
10702;DHT22;5402;50.004;8.246;2022-07-23T03:26:34;20.40;99.90
10702;DHT22;5402;50.004;8.246;2022-07-23T03:29:01;20.40;99.90
10702;DHT22;5402;50.004;8.246;2022-07-23T03:31:29;20.30;99.90
10702;DHT22;5402;50.004;8.246;2022-07-23T03:33:56;20.30;99.90
10702;DHT22;5402;50.004;8.246;2022-07-23T03:36:23;20.30;99.90
10702;DHT22;5402;50.004;8.246;2022-07-23T03:38:49;20.20;99.90
10702;DHT22;5402;50.004;8.246;2022-07-23T03:41:17;20.10;99.90
10702;DHT22;5402;50.004;8.246;2022-07-23T03:43:44;20.20;99.90
10702;DHT22;5402;50.004;8.246;2022-07-23T03:46:11;20.30;99.90
10702;DHT22;5402;50.004;8.246;2022-07-23T03:48:38;20.20;99.90
10702;DHT22;5402;50.004;8.246;2022-07-23T03:51:04;20.00;99.90
10702;DHT22;5402;50.004;8.246;2022-07-23T03:53:33;20.10;99.90
10702;DHT22;5402;50.004;8.246;2022-07-23T03:55:59;20.10;99.90
10702;DHT22;5402;50.004;8.246;2022-07-23T03:58:28;20.10;99.90
10702;DHT22;5402;50.004;8.246;2022-07-23T04:00:54;20.10;99.90
10702;DHT22;5402;50.004;8.246;2022-07-23T04:03:21;20.10;99.90
10702;DHT22;5402;50.004;8.246;2022-07-23T04:05:48;20.20;99.90
10702;DHT22;5402;50.004;8.246;2022-07-23T04:08:15;20.20;99.90
10702;DHT22;5402;50.004;8.246;2022-07-23T04:10:41;20.10;99.90
10702;DHT22;5402;50.004;8.246;2022-07-23T04:13:08;20.10;99.90
10702;DHT22;5402;50.004;8.246;2022-07-23T04:15:36;20.10;99.90
10702;DHT22;5402;50.004;8.246;2022-07-23T04:18:03;20.10;99.90
10702;DHT22;5402;50.004;8.246;2022-07-23T04:20:30;20.00;99.90
10702;DHT22;5402;50.004;8.246;2022-07-23T04:22:56;20.00;99.90
10702;DHT22;5402;50.004;8.246;2022-07-23T04:25:23;20.00;99.90
10702;DHT22;5402;50.004;8.246;2022-07-23T04:27:50;20.00;99.90
10702;DHT22;5402;50.004;8.246;2022-07-23T04:30:18;20.10;99.90
10702;DHT22;5402;50.004;8.246;2022-07-23T04:32:46;20.00;99.90
10702;DHT22;5402;50.004;8.246;2022-07-23T04:35:12;20.10;99.90
10702;DHT22;5402;50.004;8.246;2022-07-23T04:37:39;20.20;99.90
10702;DHT22;5402;50.004;8.246;2022-07-23T04:40:07;20.30;99.90
10702;DHT22;5402;50.004;8.246;2022-07-23T04:42:33;20.30;99.90
10702;DHT22;5402;50.004;8.246;2022-07-23T04:45:00;20.40;99.90
10702;DHT22;5402;50.004;8.246;2022-07-23T04:47:27;20.40;99.90
10702;DHT22;5402;50.004;8.246;2022-07-23T04:49:55;20.40;99.90
10702;DHT22;5402;50.004;8.246;2022-07-23T04:52:22;20.50;99.90
10702;DHT22;5402;50.004;8.246;2022-07-23T04:54:49;20.40;99.90
10702;DHT22;5402;50.004;8.246;2022-07-23T04:57:16;20.40;99.90
10702;DHT22;5402;50.004;8.246;2022-07-23T04:59:42;20.30;99.90
10702;DHT22;5402;50.004;8.246;2022-07-23T05:02:09;20.20;99.90
10702;DHT22;5402;50.004;8.246;2022-07-23T05:04:36;20.20;99.90
10702;DHT22;5402;50.004;8.246;2022-07-23T05:07:05;20.10;99.90
10702;DHT22;5402;50.004;8.246;2022-07-23T05:09:32;20.10;99.90
10702;DHT22;5402;50.004;8.246;2022-07-23T05:11:59;20.00;99.90
10702;DHT22;5402;50.004;8.246;2022-07-23T05:14:26;20.00;99.90
10702;DHT22;5402;50.004;8.246;2022-07-23T05:16:54;20.00;99.90
10702;DHT22;5402;50.004;8.246;2022-07-23T05:19:21;20.10;99.90
10702;DHT22;5402;50.004;8.246;2022-07-23T05:21:47;20.10;99.90
10702;DHT22;5402;50.004;8.246;2022-07-23T05:24:16;20.10;99.90
10702;DHT22;5402;50.004;8.246;2022-07-23T05:26:42;20.00;99.90
10702;DHT22;5402;50.004;8.246;2022-07-23T05:29:09;20.00;99.90
10702;DHT22;5402;50.004;8.246;2022-07-23T05:31:36;20.00;99.90
10702;DHT22;5402;50.004;8.246;2022-07-23T05:34:03;20.00;99.90
10702;DHT22;5402;50.004;8.246;2022-07-23T05:36:31;20.00;99.90
10702;DHT22;5402;50.004;8.246;2022-07-23T05:38:57;19.90;99.90
10702;DHT22;5402;50.004;8.246;2022-07-23T05:41:26;19.90;99.90
10702;DHT22;5402;50.004;8.246;2022-07-23T05:43:52;19.90;99.90
10702;DHT22;5402;50.004;8.246;2022-07-23T05:46:19;20.00;99.90
10702;DHT22;5402;50.004;8.246;2022-07-23T05:48:46;20.10;99.90
10702;DHT22;5402;50.004;8.246;2022-07-23T05:51:19;20.20;99.90
10702;DHT22;5402;50.004;8.246;2022-07-23T05:53:46;20.20;99.90
10702;DHT22;5402;50.004;8.246;2022-07-23T05:56:14;20.40;99.90
10702;DHT22;5402;50.004;8.246;2022-07-23T05:58:42;20.50;99.90
10702;DHT22;5402;50.004;8.246;2022-07-23T06:01:09;20.60;99.90
10702;DHT22;5402;50.004;8.246;2022-07-23T06:03:37;20.80;99.90
10702;DHT22;5402;50.004;8.246;2022-07-23T06:06:04;20.90;99.90
10702;DHT22;5402;50.004;8.246;2022-07-23T06:08:31;21.00;99.90
10702;DHT22;5402;50.004;8.246;2022-07-23T06:10:58;21.20;99.90
10702;DHT22;5402;50.004;8.246;2022-07-23T06:13:25;21.40;99.90
10702;DHT22;5402;50.004;8.246;2022-07-23T06:15:53;21.30;99.90
10702;DHT22;5402;50.004;8.246;2022-07-23T06:18:19;21.50;99.90
10702;DHT22;5402;50.004;8.246;2022-07-23T06:20:46;21.50;99.90
10702;DHT22;5402;50.004;8.246;2022-07-23T06:23:13;21.40;99.90
10702;DHT22;5402;50.004;8.246;2022-07-23T06:25:39;21.50;99.90
10702;DHT22;5402;50.004;8.246;2022-07-23T06:28:06;21.60;99.90
10702;DHT22;5402;50.004;8.246;2022-07-23T06:30:33;21.70;99.90
10702;DHT22;5402;50.004;8.246;2022-07-23T06:33:01;21.80;99.90
10702;DHT22;5402;50.004;8.246;2022-07-23T06:35:28;21.80;99.90
10702;DHT22;5402;50.004;8.246;2022-07-23T06:37:55;21.90;99.90
10702;DHT22;5402;50.004;8.246;2022-07-23T06:40:22;21.90;99.90
10702;DHT22;5402;50.004;8.246;2022-07-23T06:42:48;21.90;99.90
10702;DHT22;5402;50.004;8.246;2022-07-23T06:45:15;21.90;99.90
10702;DHT22;5402;50.004;8.246;2022-07-23T06:47:43;22.00;99.90
10702;DHT22;5402;50.004;8.246;2022-07-23T06:50:11;22.00;99.90
10702;DHT22;5402;50.004;8.246;2022-07-23T06:52:38;22.10;99.90
10702;DHT22;5402;50.004;8.246;2022-07-23T06:55:06;22.10;99.90
10702;DHT22;5402;50.004;8.246;2022-07-23T06:57:33;22.20;99.90
10702;DHT22;5402;50.004;8.246;2022-07-23T07:00:00;22.10;99.90
10702;DHT22;5402;50.004;8.246;2022-07-23T07:02:26;22.20;99.90
10702;DHT22;5402;50.004;8.246;2022-07-23T07:04:53;22.20;99.90
10702;DHT22;5402;50.004;8.246;2022-07-23T07:07:21;22.30;99.90
10702;DHT22;5402;50.004;8.246;2022-07-23T07:09:55;22.30;99.90
10702;DHT22;5402;50.004;8.246;2022-07-23T07:12:22;22.10;99.90
10702;DHT22;5402;50.004;8.246;2022-07-23T07:14:48;22.20;99.90
10702;DHT22;5402;50.004;8.246;2022-07-23T07:17:15;22.30;99.90
10702;DHT22;5402;50.004;8.246;2022-07-23T07:19:42;22.40;99.90
10702;DHT22;5402;50.004;8.246;2022-07-23T07:22:09;22.50;99.90
10702;DHT22;5402;50.004;8.246;2022-07-23T07:24:37;22.70;99.90
10702;DHT22;5402;50.004;8.246;2022-07-23T07:27:04;22.70;99.90
10702;DHT22;5402;50.004;8.246;2022-07-23T07:29:31;22.80;99.90
10702;DHT22;5402;50.004;8.246;2022-07-23T07:31:59;22.80;99.90
10702;DHT22;5402;50.004;8.246;2022-07-23T07:34:26;23.10;99.90
10702;DHT22;5402;50.004;8.246;2022-07-23T07:36:52;23.10;99.90
10702;DHT22;5402;50.004;8.246;2022-07-23T07:39:21;23.20;99.90
10702;DHT22;5402;50.004;8.246;2022-07-23T07:41:49;22.80;99.90
10702;DHT22;5402;50.004;8.246;2022-07-23T07:44:16;22.90;99.90
10702;DHT22;5402;50.004;8.246;2022-07-23T07:46:43;23.20;99.90
10702;DHT22;5402;50.004;8.246;2022-07-23T07:49:10;23.30;99.90
10702;DHT22;5402;50.004;8.246;2022-07-23T07:51:36;23.40;99.90
10702;DHT22;5402;50.004;8.246;2022-07-23T07:54:03;23.50;99.90
10702;DHT22;5402;50.004;8.246;2022-07-23T07:56:30;23.50;99.90
10702;DHT22;5402;50.004;8.246;2022-07-23T07:58:58;23.40;99.90
10702;DHT22;5402;50.004;8.246;2022-07-23T08:01:26;23.60;99.90
10702;DHT22;5402;50.004;8.246;2022-07-23T08:03:53;23.60;99.90
10702;DHT22;5402;50.004;8.246;2022-07-23T08:06:19;23.70;99.90
10702;DHT22;5402;50.004;8.246;2022-07-23T08:08:46;23.90;99.90
10702;DHT22;5402;50.004;8.246;2022-07-23T08:11:13;23.70;99.90
10702;DHT22;5402;50.004;8.246;2022-07-23T08:13:40;23.70;99.90
10702;DHT22;5402;50.004;8.246;2022-07-23T08:16:08;23.70;99.90
10702;DHT22;5402;50.004;8.246;2022-07-23T08:18:34;23.70;99.90
10702;DHT22;5402;50.004;8.246;2022-07-23T08:21:02;23.60;99.90
10702;DHT22;5402;50.004;8.246;2022-07-23T08:23:30;23.50;99.90
10702;DHT22;5402;50.004;8.246;2022-07-23T08:25:57;23.70;99.90
10702;DHT22;5402;50.004;8.246;2022-07-23T08:28:26;23.90;99.90
10702;DHT22;5402;50.004;8.246;2022-07-23T08:30:53;24.00;99.90
10702;DHT22;5402;50.004;8.246;2022-07-23T08:33:21;24.20;99.90
10702;DHT22;5402;50.004;8.246;2022-07-23T08:35:49;24.40;99.90
10702;DHT22;5402;50.004;8.246;2022-07-23T08:38:20;24.70;99.90
10702;DHT22;5402;50.004;8.246;2022-07-23T08:40:48;25.00;99.90
10702;DHT22;5402;50.004;8.246;2022-07-23T08:43:19;25.30;99.90
10702;DHT22;5402;50.004;8.246;2022-07-23T08:45:48;25.30;99.90
10702;DHT22;5402;50.004;8.246;2022-07-23T08:48:16;25.40;99.90
10702;DHT22;5402;50.004;8.246;2022-07-23T08:50:45;25.40;99.90
10702;DHT22;5402;50.004;8.246;2022-07-23T08:53:13;25.10;98.50
10702;DHT22;5402;50.004;8.246;2022-07-23T08:55:43;25.20;98.80
10702;DHT22;5402;50.004;8.246;2022-07-23T08:58:10;25.30;98.30
10702;DHT22;5402;50.004;8.246;2022-07-23T09:00:37;25.50;98.10
10702;DHT22;5402;50.004;8.246;2022-07-23T09:03:04;25.50;97.40
10702;DHT22;5402;50.004;8.246;2022-07-23T09:05:30;25.70;98.20
10702;DHT22;5402;50.004;8.246;2022-07-23T09:08:10;25.60;98.00
10702;DHT22;5402;50.004;8.246;2022-07-23T09:10:49;25.70;97.70
10702;DHT22;5402;50.004;8.246;2022-07-23T09:13:25;25.90;97.40
10702;DHT22;5402;50.004;8.246;2022-07-23T09:15:53;26.30;96.50
10702;DHT22;5402;50.004;8.246;2022-07-23T09:18:28;26.10;96.40
10702;DHT22;5402;50.004;8.246;2022-07-23T09:21:06;26.00;95.60
10702;DHT22;5402;50.004;8.246;2022-07-23T09:23:38;25.90;96.50
10702;DHT22;5402;50.004;8.246;2022-07-23T09:26:18;26.00;95.70
10702;DHT22;5402;50.004;8.246;2022-07-23T09:28:51;26.20;95.80
10702;DHT22;5402;50.004;8.246;2022-07-23T09:31:19;26.50;95.40
10702;DHT22;5402;50.004;8.246;2022-07-23T09:33:46;26.60;95.30
10702;DHT22;5402;50.004;8.246;2022-07-23T09:36:12;26.80;95.30
10702;DHT22;5402;50.004;8.246;2022-07-23T09:38:49;26.90;95.20
10702;DHT22;5402;50.004;8.246;2022-07-23T09:41:17;26.90;94.60
10702;DHT22;5402;50.004;8.246;2022-07-23T09:43:44;26.90;94.00
10702;DHT22;5402;50.004;8.246;2022-07-23T09:46:18;27.00;94.20
10702;DHT22;5402;50.004;8.246;2022-07-23T09:48:46;27.50;93.60
10702;DHT22;5402;50.004;8.246;2022-07-23T09:51:13;27.90;93.50
10702;DHT22;5402;50.004;8.246;2022-07-23T09:53:43;28.00;92.20
10702;DHT22;5402;50.004;8.246;2022-07-23T09:56:12;28.10;91.70
10702;DHT22;5402;50.004;8.246;2022-07-23T09:58:40;28.00;90.60
10702;DHT22;5402;50.004;8.246;2022-07-23T10:01:13;27.40;91.00
10702;DHT22;5402;50.004;8.246;2022-07-23T10:03:41;27.30;91.30
10702;DHT22;5402;50.004;8.246;2022-07-23T10:06:08;27.30;91.70
10702;DHT22;5402;50.004;8.246;2022-07-23T10:08:35;27.40;91.40
10702;DHT22;5402;50.004;8.246;2022-07-23T10:11:06;27.70;91.10
10702;DHT22;5402;50.004;8.246;2022-07-23T10:13:35;27.70;90.80
10702;DHT22;5402;50.004;8.246;2022-07-23T10:16:20;27.40;91.30
10702;DHT22;5402;50.004;8.246;2022-07-23T10:18:48;27.60;91.40
10702;DHT22;5402;50.004;8.246;2022-07-23T10:21:21;27.70;90.70
10702;DHT22;5402;50.004;8.246;2022-07-23T10:24:01;27.70;90.50
10702;DHT22;5402;50.004;8.246;2022-07-23T10:26:36;27.90;90.70
10702;DHT22;5402;50.004;8.246;2022-07-23T10:29:16;27.70;92.10
10702;DHT22;5402;50.004;8.246;2022-07-23T10:31:52;27.50;91.40
10702;DHT22;5402;50.004;8.246;2022-07-23T10:34:25;27.30;91.50
10702;DHT22;5402;50.004;8.246;2022-07-23T10:37:01;27.10;91.70
10702;DHT22;5402;50.004;8.246;2022-07-23T10:39:33;27.00;91.70
10702;DHT22;5402;50.004;8.246;2022-07-23T10:42:09;26.90;92.00
10702;DHT22;5402;50.004;8.246;2022-07-23T10:44:42;26.90;91.70
10702;DHT22;5402;50.004;8.246;2022-07-23T10:47:10;26.80;91.70
10702;DHT22;5402;50.004;8.246;2022-07-23T10:50:21;27.00;91.40
10702;DHT22;5402;50.004;8.246;2022-07-23T10:53:15;27.30;91.00
10702;DHT22;5402;50.004;8.246;2022-07-23T10:55:45;27.10;90.80
10702;DHT22;5402;50.004;8.246;2022-07-23T10:58:18;26.90;90.70
10702;DHT22;5402;50.004;8.246;2022-07-23T11:00:47;26.70;90.90
10702;DHT22;5402;50.004;8.246;2022-07-23T11:03:31;26.70;91.20
10702;DHT22;5402;50.004;8.246;2022-07-23T11:06:01;26.80;90.70
10702;DHT22;5402;50.004;8.246;2022-07-23T11:08:27;27.00;90.60
10702;DHT22;5402;50.004;8.246;2022-07-23T11:11:08;27.00;90.20
10702;DHT22;5402;50.004;8.246;2022-07-23T11:13:45;26.80;91.00
10702;DHT22;5402;50.004;8.246;2022-07-23T11:16:19;26.80;91.20
10702;DHT22;5402;50.004;8.246;2022-07-23T11:19:06;27.10;91.00
10702;DHT22;5402;50.004;8.246;2022-07-23T11:21:50;27.30;90.40
10702;DHT22;5402;50.004;8.246;2022-07-23T11:24:21;27.30;90.40
10702;DHT22;5402;50.004;8.246;2022-07-23T11:27:03;27.40;90.50
10702;DHT22;5402;50.004;8.246;2022-07-23T11:29:44;27.30;90.50
10702;DHT22;5402;50.004;8.246;2022-07-23T11:32:33;27.10;90.40
10702;DHT22;5402;50.004;8.246;2022-07-23T11:35:18;27.00;90.20
10702;DHT22;5402;50.004;8.246;2022-07-23T11:37:46;27.10;89.70
10702;DHT22;5402;50.004;8.246;2022-07-23T11:40:14;27.00;90.60
10702;DHT22;5402;50.004;8.246;2022-07-23T11:42:52;27.10;90.40
10702;DHT22;5402;50.004;8.246;2022-07-23T11:45:19;27.00;88.60
10702;DHT22;5402;50.004;8.246;2022-07-23T11:47:47;27.20;89.40
10702;DHT22;5402;50.004;8.246;2022-07-23T11:50:14;27.30;88.20
10702;DHT22;5402;50.004;8.246;2022-07-23T11:52:41;27.60;89.20
10702;DHT22;5402;50.004;8.246;2022-07-23T11:55:10;27.90;88.70
10702;DHT22;5402;50.004;8.246;2022-07-23T11:57:39;28.20;88.50
10702;DHT22;5402;50.004;8.246;2022-07-23T12:00:09;28.30;86.20
10702;DHT22;5402;50.004;8.246;2022-07-23T12:02:39;28.40;85.70
10702;DHT22;5402;50.004;8.246;2022-07-23T12:05:08;28.60;84.70
10702;DHT22;5402;50.004;8.246;2022-07-23T12:07:38;28.70;84.20
10702;DHT22;5402;50.004;8.246;2022-07-23T12:10:11;28.70;83.90
10702;DHT22;5402;50.004;8.246;2022-07-23T12:12:40;28.60;84.90
10702;DHT22;5402;50.004;8.246;2022-07-23T12:15:09;28.70;84.80
10702;DHT22;5402;50.004;8.246;2022-07-23T12:17:38;28.10;84.60
10702;DHT22;5402;50.004;8.246;2022-07-23T12:20:11;28.10;85.10
10702;DHT22;5402;50.004;8.246;2022-07-23T12:22:40;28.50;84.60
10702;DHT22;5402;50.004;8.246;2022-07-23T12:25:09;28.90;84.10
10702;DHT22;5402;50.004;8.246;2022-07-23T12:27:37;29.20;82.40
10702;DHT22;5402;50.004;8.246;2022-07-23T12:30:22;29.40;82.30
10702;DHT22;5402;50.004;8.246;2022-07-23T12:32:51;29.90;81.00
10702;DHT22;5402;50.004;8.246;2022-07-23T12:35:20;29.50;81.10
10702;DHT22;5402;50.004;8.246;2022-07-23T12:37:50;28.70;81.70
10702;DHT22;5402;50.004;8.246;2022-07-23T12:40:23;28.60;82.80
10702;DHT22;5402;50.004;8.246;2022-07-23T12:42:51;28.50;84.40
10702;DHT22;5402;50.004;8.246;2022-07-23T12:45:19;28.70;84.60
10702;DHT22;5402;50.004;8.246;2022-07-23T12:47:58;29.00;82.10
10702;DHT22;5402;50.004;8.246;2022-07-23T12:50:52;28.90;81.40
10702;DHT22;5402;50.004;8.246;2022-07-23T12:53:22;28.90;82.40
10702;DHT22;5402;50.004;8.246;2022-07-23T12:55:50;29.00;82.30
10702;DHT22;5402;50.004;8.246;2022-07-23T12:58:18;29.10;82.20
10702;DHT22;5402;50.004;8.246;2022-07-23T13:01:02;29.00;83.10
10702;DHT22;5402;50.004;8.246;2022-07-23T13:03:33;28.70;83.40
10702;DHT22;5402;50.004;8.246;2022-07-23T13:06:02;28.60;83.50
10702;DHT22;5402;50.004;8.246;2022-07-23T13:08:31;28.50;83.40
10702;DHT22;5402;50.004;8.246;2022-07-23T13:11:00;28.40;83.30
10702;DHT22;5402;50.004;8.246;2022-07-23T13:13:28;28.50;83.70
10702;DHT22;5402;50.004;8.246;2022-07-23T13:15:56;28.50;85.10
10702;DHT22;5402;50.004;8.246;2022-07-23T13:18:23;28.30;84.40
10702;DHT22;5402;50.004;8.246;2022-07-23T13:20:50;28.40;85.00
10702;DHT22;5402;50.004;8.246;2022-07-23T13:23:19;28.50;84.00
10702;DHT22;5402;50.004;8.246;2022-07-23T13:25:46;28.60;83.10
10702;DHT22;5402;50.004;8.246;2022-07-23T13:28:13;28.60;82.90
10702;DHT22;5402;50.004;8.246;2022-07-23T13:30:40;28.60;84.70
10702;DHT22;5402;50.004;8.246;2022-07-23T13:33:07;28.60;83.40
10702;DHT22;5402;50.004;8.246;2022-07-23T13:35:35;28.70;83.00
10702;DHT22;5402;50.004;8.246;2022-07-23T13:38:02;28.70;82.40
10702;DHT22;5402;50.004;8.246;2022-07-23T13:40:30;28.70;82.20
10702;DHT22;5402;50.004;8.246;2022-07-23T13:42:57;28.60;82.60
10702;DHT22;5402;50.004;8.246;2022-07-23T13:45:24;28.50;82.40
10702;DHT22;5402;50.004;8.246;2022-07-23T13:47:51;28.60;82.50
10702;DHT22;5402;50.004;8.246;2022-07-23T13:50:17;28.60;82.70
10702;DHT22;5402;50.004;8.246;2022-07-23T13:52:44;28.70;81.90
10702;DHT22;5402;50.004;8.246;2022-07-23T13:55:11;28.60;82.00
10702;DHT22;5402;50.004;8.246;2022-07-23T13:57:39;28.70;82.50
10702;DHT22;5402;50.004;8.246;2022-07-23T14:00:07;28.80;81.00
10702;DHT22;5402;50.004;8.246;2022-07-23T14:02:36;28.70;81.50
10702;DHT22;5402;50.004;8.246;2022-07-23T14:05:04;28.70;81.50
10702;DHT22;5402;50.004;8.246;2022-07-23T14:07:31;28.80;81.30
10702;DHT22;5402;50.004;8.246;2022-07-23T14:09:58;28.90;80.60
10702;DHT22;5402;50.004;8.246;2022-07-23T14:12:25;29.00;80.00
10702;DHT22;5402;50.004;8.246;2022-07-23T14:14:53;28.80;78.70
10702;DHT22;5402;50.004;8.246;2022-07-23T14:17:20;28.70;79.00
10702;DHT22;5402;50.004;8.246;2022-07-23T14:19:47;28.60;78.80
10702;DHT22;5402;50.004;8.246;2022-07-23T14:22:15;28.40;81.80
10702;DHT22;5402;50.004;8.246;2022-07-23T14:24:41;28.30;80.80
10702;DHT22;5402;50.004;8.246;2022-07-23T14:27:08;28.30;81.40
10702;DHT22;5402;50.004;8.246;2022-07-23T14:29:35;28.30;80.90
10702;DHT22;5402;50.004;8.246;2022-07-23T14:32:04;28.50;80.90
10702;DHT22;5402;50.004;8.246;2022-07-23T14:34:31;28.70;80.00
10702;DHT22;5402;50.004;8.246;2022-07-23T14:36:58;28.80;79.40
10702;DHT22;5402;50.004;8.246;2022-07-23T14:39:25;28.90;79.30
10702;DHT22;5402;50.004;8.246;2022-07-23T14:41:53;29.00;77.50
10702;DHT22;5402;50.004;8.246;2022-07-23T14:44:20;29.00;78.20
10702;DHT22;5402;50.004;8.246;2022-07-23T14:46:47;28.90;77.40
10702;DHT22;5402;50.004;8.246;2022-07-23T14:49:15;29.00;78.30
10702;DHT22;5402;50.004;8.246;2022-07-23T14:51:42;29.10;75.50
10702;DHT22;5402;50.004;8.246;2022-07-23T14:54:10;29.30;74.90
10702;DHT22;5402;50.004;8.246;2022-07-23T14:56:36;29.10;75.40
10702;DHT22;5402;50.004;8.246;2022-07-23T14:59:04;29.20;74.60
10702;DHT22;5402;50.004;8.246;2022-07-23T15:01:32;29.20;74.70
10702;DHT22;5402;50.004;8.246;2022-07-23T15:03:59;29.10;74.40
10702;DHT22;5402;50.004;8.246;2022-07-23T15:06:28;29.30;74.10
10702;DHT22;5402;50.004;8.246;2022-07-23T15:08:55;29.30;73.80
10702;DHT22;5402;50.004;8.246;2022-07-23T15:11:22;29.30;73.60
10702;DHT22;5402;50.004;8.246;2022-07-23T15:13:49;29.40;73.40
10702;DHT22;5402;50.004;8.246;2022-07-23T15:16:16;29.30;76.10
10702;DHT22;5402;50.004;8.246;2022-07-23T15:18:42;29.30;72.40
10702;DHT22;5402;50.004;8.246;2022-07-23T15:21:09;29.20;73.20
10702;DHT22;5402;50.004;8.246;2022-07-23T15:23:37;29.20;73.30
10702;DHT22;5402;50.004;8.246;2022-07-23T15:26:05;29.40;73.00
10702;DHT22;5402;50.004;8.246;2022-07-23T15:28:32;29.30;72.20
10702;DHT22;5402;50.004;8.246;2022-07-23T15:30:59;29.40;72.50
10702;DHT22;5402;50.004;8.246;2022-07-23T15:33:25;29.40;71.90
10702;DHT22;5402;50.004;8.246;2022-07-23T15:35:52;29.40;72.20
10702;DHT22;5402;50.004;8.246;2022-07-23T15:38:20;29.40;71.60
10702;DHT22;5402;50.004;8.246;2022-07-23T15:40:48;29.50;72.90
10702;DHT22;5402;50.004;8.246;2022-07-23T15:43:15;29.50;73.10
10702;DHT22;5402;50.004;8.246;2022-07-23T15:45:42;29.30;70.20
10702;DHT22;5402;50.004;8.246;2022-07-23T15:48:13;29.30;70.80
10702;DHT22;5402;50.004;8.246;2022-07-23T15:50:40;29.20;74.30
10702;DHT22;5402;50.004;8.246;2022-07-23T15:53:08;29.20;72.40